Portada
METAR-TAF:

METAR-TAF

Aeroports :

Nadi, Fiji

latitud: 17-45S, longitud: 177-27E, altitud: 13 m

Observació

L'informe es va fer fa 39 minuts, a les 08:00 UTC
Vent 8 kt del Sud/Sud-Est
Temperatura 25°C
Humitat 79%
Pressió 1014 hPa
Visibilitat 10 km o més
Núvols disperses a una alçada de 2600 ft
Cel ennuvolat a una alçada de 4600 ft

METAR: NFFN 190800Z 15008KT 9999 SCT026 BKN046 25/21 Q1014 NOSIG

Hora: 20:39 (08:39 UTC)

Pronòstic

L'informe es va fer fa 3 hores i 29 minuts, a les 05:10 UTC
Pronòstic vàlid del 19 a les 06 UTC al 20 a les 06 UTC
Vent 5 kt del Sud/Sud-Est
Visibilitat 10 km o més
Núvols disperses a una alçada de 2600 ft
Cel ennuvolat a una alçada de 4600 ft
Evolucionant progressivament
l' 19 a les 22 UTC al 19 a les 24 UTC
Vent 10 kt del Oest/Nord-Oest
Evolucionant progressivament
l' 20 a les 04 UTC al 20 a les 06 UTC
Vent 5 kt del Est/Sud-Est

TAF: NFFN 190510Z 1906/2006 16005KT 9999 SCT026 BKN046 BECMG 1922/1924 29010KT BECMG 2004/2006 12005KT

Observacions i pronòstics meteorològics de més de 4000 aeroports (METAR i TAF).

Les estacions disponibles són els punts grocs i vermells al mapa.

Posi el ratolí al punt desitjat per veure el nom de l'estació.

Feu clic per veure les observacions i els pronòstics meteorològics.

Per canviar el mapa: feu clic els botons verds amb una creu de color negre per apropar; al botó verd amb un guió per allunyar la imatge; o en les fletxes verdes per a mapes adjacents.


METAR-TAF: